sensor_id;sensor_type;location;lat;lon;timestamp;P1;durP1;ratioP1;P2;durP2;ratioP2
62832;SDS011;48891;49.220;6.920;2022-12-07T00:01:13;6.68;;;4.93;;
62832;SDS011;48891;49.220;6.920;2022-12-07T00:03:38;7.15;;;4.90;;
62832;SDS011;48891;49.220;6.920;2022-12-07T00:06:04;7.65;;;4.88;;
62832;SDS011;48891;49.220;6.920;2022-12-07T00:08:30;7.15;;;4.95;;
62832;SDS011;48891;49.220;6.920;2022-12-07T00:10:55;7.47;;;4.65;;
62832;SDS011;48891;49.220;6.920;2022-12-07T00:13:25;6.68;;;4.70;;
62832;SDS011;48891;49.220;6.920;2022-12-07T00:15:50;6.22;;;4.95;;
62832;SDS011;48891;49.220;6.920;2022-12-07T00:18:15;7.20;;;5.10;;
62832;SDS011;48891;49.220;6.920;2022-12-07T00:20:40;6.47;;;4.88;;
62832;SDS011;48891;49.220;6.920;2022-12-07T00:23:05;6.63;;;4.38;;
62832;SDS011;48891;49.220;6.920;2022-12-07T00:25:30;5.88;;;4.35;;
62832;SDS011;48891;49.220;6.920;2022-12-07T00:27:55;8.20;;;5.20;;
62832;SDS011;48891;49.220;6.920;2022-12-07T00:30:21;7.57;;;5.07;;
62832;SDS011;48891;49.220;6.920;2022-12-07T00:32:46;6.60;;;4.50;;
62832;SDS011;48891;49.220;6.920;2022-12-07T00:35:11;7.18;;;5.20;;
62832;SDS011;48891;49.220;6.920;2022-12-07T00:37:36;7.32;;;4.82;;
62832;SDS011;48891;49.220;6.920;2022-12-07T00:40:02;6.55;;;4.65;;
62832;SDS011;48891;49.220;6.920;2022-12-07T00:42:27;7.40;;;5.00;;
62832;SDS011;48891;49.220;6.920;2022-12-07T00:44:52;8.50;;;5.47;;
62832;SDS011;48891;49.220;6.920;2022-12-07T00:47:17;7.10;;;4.90;;
62832;SDS011;48891;49.220;6.920;2022-12-07T00:49:42;8.47;;;4.70;;
62832;SDS011;48891;49.220;6.920;2022-12-07T00:52:07;7.05;;;4.68;;
62832;SDS011;48891;49.220;6.920;2022-12-07T00:54:32;7.32;;;4.72;;
62832;SDS011;48891;49.220;6.920;2022-12-07T00:56:57;7.75;;;4.82;;
62832;SDS011;48891;49.220;6.920;2022-12-07T00:59:23;6.45;;;4.15;;
62832;SDS011;48891;49.220;6.920;2022-12-07T01:01:48;8.35;;;4.88;;
62832;SDS011;48891;49.220;6.920;2022-12-07T01:04:13;7.85;;;5.13;;
62832;SDS011;48891;49.220;6.920;2022-12-07T01:06:38;7.18;;;4.97;;
62832;SDS011;48891;49.220;6.920;2022-12-07T01:09:03;7.57;;;4.50;;
62832;SDS011;48891;49.220;6.920;2022-12-07T01:11:29;7.00;;;4.53;;
62832;SDS011;48891;49.220;6.920;2022-12-07T01:13:55;6.70;;;4.38;;
62832;SDS011;48891;49.220;6.920;2022-12-07T01:16:21;7.35;;;4.53;;
62832;SDS011;48891;49.220;6.920;2022-12-07T01:18:47;7.70;;;4.90;;
62832;SDS011;48891;49.220;6.920;2022-12-07T01:21:31;7.22;;;4.45;;
62832;SDS011;48891;49.220;6.920;2022-12-07T01:23:57;6.50;;;4.57;;
62832;SDS011;48891;49.220;6.920;2022-12-07T01:26:23;5.82;;;3.90;;
62832;SDS011;48891;49.220;6.920;2022-12-07T01:28:49;6.35;;;4.60;;
62832;SDS011;48891;49.220;6.920;2022-12-07T01:31:15;6.22;;;4.60;;
62832;SDS011;48891;49.220;6.920;2022-12-07T01:33:41;7.18;;;4.68;;
62832;SDS011;48891;49.220;6.920;2022-12-07T01:38:37;6.80;;;4.97;;
62832;SDS011;48891;49.220;6.920;2022-12-07T01:41:02;6.57;;;4.65;;
62832;SDS011;48891;49.220;6.920;2022-12-07T01:43:29;5.93;;;4.13;;
62832;SDS011;48891;49.220;6.920;2022-12-07T01:45:55;7.07;;;4.70;;
62832;SDS011;48891;49.220;6.920;2022-12-07T01:48:41;5.78;;;4.25;;
62832;SDS011;48891;49.220;6.920;2022-12-07T01:51:07;6.85;;;4.40;;
62832;SDS011;48891;49.220;6.920;2022-12-07T01:53:34;6.97;;;4.45;;
62832;SDS011;48891;49.220;6.920;2022-12-07T01:56:00;6.32;;;4.00;;
62832;SDS011;48891;49.220;6.920;2022-12-07T01:58:25;6.33;;;4.40;;
62832;SDS011;48891;49.220;6.920;2022-12-07T02:00:51;6.47;;;4.40;;
62832;SDS011;48891;49.220;6.920;2022-12-07T02:03:27;7.07;;;4.07;;
62832;SDS011;48891;49.220;6.920;2022-12-07T02:05:54;6.23;;;4.50;;
62832;SDS011;48891;49.220;6.920;2022-12-07T02:08:19;7.85;;;4.47;;
62832;SDS011;48891;49.220;6.920;2022-12-07T02:10:44;6.60;;;4.22;;
62832;SDS011;48891;49.220;6.920;2022-12-07T02:23:07;6.47;;;3.92;;
62832;SDS011;48891;49.220;6.920;2022-12-07T02:28:27;6.38;;;4.03;;
62832;SDS011;48891;49.220;6.920;2022-12-07T02:30:54;6.30;;;4.28;;
62832;SDS011;48891;49.220;6.920;2022-12-07T02:33:29;6.82;;;4.38;;
62832;SDS011;48891;49.220;6.920;2022-12-07T02:36:02;6.95;;;4.55;;
62832;SDS011;48891;49.220;6.920;2022-12-07T02:38:37;6.65;;;4.53;;
62832;SDS011;48891;49.220;6.920;2022-12-07T02:43:35;7.05;;;4.30;;
62832;SDS011;48891;49.220;6.920;2022-12-07T02:46:04;7.05;;;4.00;;
62832;SDS011;48891;49.220;6.920;2022-12-07T02:48:31;6.78;;;4.57;;
62832;SDS011;48891;49.220;6.920;2022-12-07T02:50:56;5.60;;;4.22;;
62832;SDS011;48891;49.220;6.920;2022-12-07T02:53:37;6.93;;;4.53;;
62832;SDS011;48891;49.220;6.920;2022-12-07T02:56:07;6.70;;;4.07;;
62832;SDS011;48891;49.220;6.920;2022-12-07T03:03:48;7.03;;;4.43;;
62832;SDS011;48891;49.220;6.920;2022-12-07T03:06:20;5.95;;;4.20;;
62832;SDS011;48891;49.220;6.920;2022-12-07T03:08:56;6.53;;;3.88;;
62832;SDS011;48891;49.220;6.920;2022-12-07T03:11:25;5.55;;;3.88;;
62832;SDS011;48891;49.220;6.920;2022-12-07T03:13:58;5.85;;;3.95;;
62832;SDS011;48891;49.220;6.920;2022-12-07T03:16:28;7.00;;;3.78;;
62832;SDS011;48891;49.220;6.920;2022-12-07T03:18:55;6.55;;;4.15;;
62832;SDS011;48891;49.220;6.920;2022-12-07T03:21:27;7.38;;;4.30;;
62832;SDS011;48891;49.220;6.920;2022-12-07T03:23:55;6.60;;;4.15;;
62832;SDS011;48891;49.220;6.920;2022-12-07T03:26:22;5.05;;;3.80;;
62832;SDS011;48891;49.220;6.920;2022-12-07T03:28:50;6.00;;;4.05;;
62832;SDS011;48891;49.220;6.920;2022-12-07T03:31:26;6.78;;;3.72;;
62832;SDS011;48891;49.220;6.920;2022-12-07T03:34:02;7.18;;;4.45;;
62832;SDS011;48891;49.220;6.920;2022-12-07T03:36:39;6.65;;;4.13;;
62832;SDS011;48891;49.220;6.920;2022-12-07T03:39:22;5.90;;;4.25;;
62832;SDS011;48891;49.220;6.920;2022-12-07T03:41:49;6.43;;;4.30;;
62832;SDS011;48891;49.220;6.920;2022-12-07T03:44:14;6.25;;;3.60;;
62832;SDS011;48891;49.220;6.920;2022-12-07T03:49:11;5.93;;;3.80;;
62832;SDS011;48891;49.220;6.920;2022-12-07T03:54:17;6.63;;;4.13;;
62832;SDS011;48891;49.220;6.920;2022-12-07T03:56:43;5.13;;;3.70;;
62832;SDS011;48891;49.220;6.920;2022-12-07T03:59:09;5.75;;;3.97;;
62832;SDS011;48891;49.220;6.920;2022-12-07T04:01:34;5.45;;;3.83;;
62832;SDS011;48891;49.220;6.920;2022-12-07T04:03:59;6.17;;;4.10;;
62832;SDS011;48891;49.220;6.920;2022-12-07T04:06:24;6.22;;;3.92;;
62832;SDS011;48891;49.220;6.920;2022-12-07T04:08:50;5.75;;;4.05;;
62832;SDS011;48891;49.220;6.920;2022-12-07T04:11:15;6.43;;;3.88;;
62832;SDS011;48891;49.220;6.920;2022-12-07T04:13:40;6.10;;;3.90;;
62832;SDS011;48891;49.220;6.920;2022-12-07T04:16:05;5.40;;;3.73;;
62832;SDS011;48891;49.220;6.920;2022-12-07T04:18:30;5.43;;;3.90;;
62832;SDS011;48891;49.220;6.920;2022-12-07T04:20:55;5.90;;;3.60;;
62832;SDS011;48891;49.220;6.920;2022-12-07T04:23:20;5.78;;;3.83;;
62832;SDS011;48891;49.220;6.920;2022-12-07T04:25:47;6.47;;;3.95;;
62832;SDS011;48891;49.220;6.920;2022-12-07T04:28:12;6.70;;;3.78;;
62832;SDS011;48891;49.220;6.920;2022-12-07T04:30:37;5.63;;;3.72;;
62832;SDS011;48891;49.220;6.920;2022-12-07T04:33:03;5.68;;;3.83;;
62832;SDS011;48891;49.220;6.920;2022-12-07T04:35:28;5.78;;;3.92;;
62832;SDS011;48891;49.220;6.920;2022-12-07T04:37:53;6.88;;;4.13;;
62832;SDS011;48891;49.220;6.920;2022-12-07T04:40:18;7.57;;;4.40;;
62832;SDS011;48891;49.220;6.920;2022-12-07T04:42:43;6.07;;;3.90;;
62832;SDS011;48891;49.220;6.920;2022-12-07T04:45:08;6.35;;;4.20;;
62832;SDS011;48891;49.220;6.920;2022-12-07T04:47:33;5.82;;;3.78;;
62832;SDS011;48891;49.220;6.920;2022-12-07T04:49:59;7.15;;;4.28;;
62832;SDS011;48891;49.220;6.920;2022-12-07T04:52:24;5.70;;;3.70;;
62832;SDS011;48891;49.220;6.920;2022-12-07T04:54:49;6.32;;;4.07;;
62832;SDS011;48891;49.220;6.920;2022-12-07T04:57:14;7.22;;;3.97;;
62832;SDS011;48891;49.220;6.920;2022-12-07T04:59:39;5.95;;;4.03;;
62832;SDS011;48891;49.220;6.920;2022-12-07T05:02:04;5.07;;;3.65;;
62832;SDS011;48891;49.220;6.920;2022-12-07T05:04:29;6.43;;;3.70;;
62832;SDS011;48891;49.220;6.920;2022-12-07T05:06:55;5.63;;;3.77;;
62832;SDS011;48891;49.220;6.920;2022-12-07T05:09:20;5.95;;;4.28;;
62832;SDS011;48891;49.220;6.920;2022-12-07T05:11:45;5.83;;;3.87;;
62832;SDS011;48891;49.220;6.920;2022-12-07T05:14:18;5.63;;;3.85;;
62832;SDS011;48891;49.220;6.920;2022-12-07T05:16:43;5.57;;;4.05;;
62832;SDS011;48891;49.220;6.920;2022-12-07T05:19:09;6.38;;;4.25;;
62832;SDS011;48891;49.220;6.920;2022-12-07T05:21:35;6.93;;;3.90;;
62832;SDS011;48891;49.220;6.920;2022-12-07T05:24:00;6.65;;;3.97;;
62832;SDS011;48891;49.220;6.920;2022-12-07T05:26:26;5.93;;;4.00;;
62832;SDS011;48891;49.220;6.920;2022-12-07T05:28:52;7.88;;;4.00;;
62832;SDS011;48891;49.220;6.920;2022-12-07T05:31:17;6.47;;;3.85;;
62832;SDS011;48891;49.220;6.920;2022-12-07T05:33:42;5.63;;;3.65;;
62832;SDS011;48891;49.220;6.920;2022-12-07T05:36:07;5.75;;;4.07;;
62832;SDS011;48891;49.220;6.920;2022-12-07T05:38:32;6.57;;;4.20;;
62832;SDS011;48891;49.220;6.920;2022-12-07T05:41:01;5.65;;;3.70;;
62832;SDS011;48891;49.220;6.920;2022-12-07T05:43:26;6.30;;;4.18;;
62832;SDS011;48891;49.220;6.920;2022-12-07T05:45:51;6.43;;;4.30;;
62832;SDS011;48891;49.220;6.920;2022-12-07T05:48:16;5.13;;;3.58;;
62832;SDS011;48891;49.220;6.920;2022-12-07T05:50:41;5.55;;;3.75;;
62832;SDS011;48891;49.220;6.920;2022-12-07T05:53:07;6.03;;;4.13;;
62832;SDS011;48891;49.220;6.920;2022-12-07T05:55:32;5.50;;;3.47;;
62832;SDS011;48891;49.220;6.920;2022-12-07T05:57:57;6.05;;;3.90;;
62832;SDS011;48891;49.220;6.920;2022-12-07T06:00:22;6.53;;;4.15;;
62832;SDS011;48891;49.220;6.920;2022-12-07T06:02:47;6.43;;;3.60;;
62832;SDS011;48891;49.220;6.920;2022-12-07T06:05:12;6.78;;;4.25;;
62832;SDS011;48891;49.220;6.920;2022-12-07T06:07:37;4.53;;;3.33;;
62832;SDS011;48891;49.220;6.920;2022-12-07T06:10:02;6.40;;;3.88;;
62832;SDS011;48891;49.220;6.920;2022-12-07T06:12:28;5.05;;;3.50;;
62832;SDS011;48891;49.220;6.920;2022-12-07T06:14:53;4.70;;;3.70;;
62832;SDS011;48891;49.220;6.920;2022-12-07T06:17:18;5.35;;;3.58;;
62832;SDS011;48891;49.220;6.920;2022-12-07T06:19:43;5.13;;;3.25;;
62832;SDS011;48891;49.220;6.920;2022-12-07T06:22:09;5.82;;;3.97;;
62832;SDS011;48891;49.220;6.920;2022-12-07T06:24:34;6.00;;;3.67;;
62832;SDS011;48891;49.220;6.920;2022-12-07T06:26:59;6.00;;;3.78;;
62832;SDS011;48891;49.220;6.920;2022-12-07T06:29:25;5.53;;;3.67;;
62832;SDS011;48891;49.220;6.920;2022-12-07T06:31:50;5.47;;;3.53;;
62832;SDS011;48891;49.220;6.920;2022-12-07T06:34:16;5.32;;;3.95;;
62832;SDS011;48891;49.220;6.920;2022-12-07T06:36:41;5.57;;;3.75;;
62832;SDS011;48891;49.220;6.920;2022-12-07T06:39:07;6.18;;;3.97;;
62832;SDS011;48891;49.220;6.920;2022-12-07T06:41:32;5.63;;;3.53;;
62832;SDS011;48891;49.220;6.920;2022-12-07T06:43:57;5.60;;;3.67;;
62832;SDS011;48891;49.220;6.920;2022-12-07T06:46:23;5.63;;;3.35;;
62832;SDS011;48891;49.220;6.920;2022-12-07T06:48:48;6.03;;;3.95;;
62832;SDS011;48891;49.220;6.920;2022-12-07T06:51:13;4.50;;;3.17;;
62832;SDS011;48891;49.220;6.920;2022-12-07T06:53:38;6.03;;;3.97;;
62832;SDS011;48891;49.220;6.920;2022-12-07T06:56:04;6.90;;;3.90;;
62832;SDS011;48891;49.220;6.920;2022-12-07T06:58:29;5.32;;;3.53;;
62832;SDS011;48891;49.220;6.920;2022-12-07T07:00:54;5.97;;;3.38;;
62832;SDS011;48891;49.220;6.920;2022-12-07T07:03:19;5.70;;;4.00;;
62832;SDS011;48891;49.220;6.920;2022-12-07T07:05:44;5.77;;;3.50;;
62832;SDS011;48891;49.220;6.920;2022-12-07T07:08:10;6.45;;;4.18;;
62832;SDS011;48891;49.220;6.920;2022-12-07T07:10:35;6.18;;;3.80;;
62832;SDS011;48891;49.220;6.920;2022-12-07T07:13:00;5.20;;;3.60;;
62832;SDS011;48891;49.220;6.920;2022-12-07T07:15:26;6.03;;;3.80;;
62832;SDS011;48891;49.220;6.920;2022-12-07T07:17:51;5.85;;;3.80;;
62832;SDS011;48891;49.220;6.920;2022-12-07T07:20:16;5.55;;;3.90;;
62832;SDS011;48891;49.220;6.920;2022-12-07T07:22:41;5.63;;;3.88;;
62832;SDS011;48891;49.220;6.920;2022-12-07T07:25:06;5.57;;;3.60;;
62832;SDS011;48891;49.220;6.920;2022-12-07T07:27:31;5.50;;;3.50;;
62832;SDS011;48891;49.220;6.920;2022-12-07T07:29:57;5.97;;;3.83;;
62832;SDS011;48891;49.220;6.920;2022-12-07T07:32:22;5.83;;;4.30;;
62832;SDS011;48891;49.220;6.920;2022-12-07T07:34:47;6.07;;;4.00;;
62832;SDS011;48891;49.220;6.920;2022-12-07T07:37:12;5.53;;;3.55;;
62832;SDS011;48891;49.220;6.920;2022-12-07T07:39:38;6.03;;;4.00;;
62832;SDS011;48891;49.220;6.920;2022-12-07T07:42:03;5.70;;;3.60;;
62832;SDS011;48891;49.220;6.920;2022-12-07T07:44:28;4.70;;;3.38;;
62832;SDS011;48891;49.220;6.920;2022-12-07T07:46:53;6.65;;;4.00;;
62832;SDS011;48891;49.220;6.920;2022-12-07T07:49:18;6.22;;;3.70;;
62832;SDS011;48891;49.220;6.920;2022-12-07T07:51:43;6.95;;;3.90;;
62832;SDS011;48891;49.220;6.920;2022-12-07T07:54:09;5.78;;;3.90;;
62832;SDS011;48891;49.220;6.920;2022-12-07T07:56:34;5.40;;;3.40;;
62832;SDS011;48891;49.220;6.920;2022-12-07T07:58:59;6.35;;;3.88;;
62832;SDS011;48891;49.220;6.920;2022-12-07T08:01:24;5.78;;;3.55;;
62832;SDS011;48891;49.220;6.920;2022-12-07T08:03:49;5.68;;;3.50;;
62832;SDS011;48891;49.220;6.920;2022-12-07T08:06:14;6.43;;;3.97;;
62832;SDS011;48891;49.220;6.920;2022-12-07T08:08:40;6.25;;;3.83;;
62832;SDS011;48891;49.220;6.920;2022-12-07T08:11:05;5.53;;;3.70;;
62832;SDS011;48891;49.220;6.920;2022-12-07T08:13:30;6.20;;;3.75;;
62832;SDS011;48891;49.220;6.920;2022-12-07T08:15:55;5.60;;;3.60;;
62832;SDS011;48891;49.220;6.920;2022-12-07T08:18:20;7.35;;;4.03;;
62832;SDS011;48891;49.220;6.920;2022-12-07T08:20:46;6.38;;;3.95;;
62832;SDS011;48891;49.220;6.920;2022-12-07T08:23:11;5.45;;;3.50;;
62832;SDS011;48891;49.220;6.920;2022-12-07T08:25:36;6.18;;;3.70;;
62832;SDS011;48891;49.220;6.920;2022-12-07T08:28:02;6.38;;;3.70;;
62832;SDS011;48891;49.220;6.920;2022-12-07T08:30:27;5.57;;;3.47;;
62832;SDS011;48891;49.220;6.920;2022-12-07T08:32:53;6.13;;;3.60;;
62832;SDS011;48891;49.220;6.920;2022-12-07T08:35:18;6.35;;;3.80;;
62832;SDS011;48891;49.220;6.920;2022-12-07T08:37:43;5.97;;;3.60;;
62832;SDS011;48891;49.220;6.920;2022-12-07T08:40:08;5.77;;;4.00;;
62832;SDS011;48891;49.220;6.920;2022-12-07T08:42:35;5.32;;;3.45;;
62832;SDS011;48891;49.220;6.920;2022-12-07T08:45:00;5.45;;;3.70;;
62832;SDS011;48891;49.220;6.920;2022-12-07T08:47:25;5.23;;;3.53;;
62832;SDS011;48891;49.220;6.920;2022-12-07T08:49:50;6.10;;;4.00;;
62832;SDS011;48891;49.220;6.920;2022-12-07T08:52:16;6.32;;;3.38;;
62832;SDS011;48891;49.220;6.920;2022-12-07T08:54:42;7.32;;;3.95;;
62832;SDS011;48891;49.220;6.920;2022-12-07T08:57:07;5.53;;;3.53;;
62832;SDS011;48891;49.220;6.920;2022-12-07T08:59:33;5.13;;;3.40;;
62832;SDS011;48891;49.220;6.920;2022-12-07T09:01:59;6.20;;;3.58;;
62832;SDS011;48891;49.220;6.920;2022-12-07T09:04:24;6.03;;;3.53;;
62832;SDS011;48891;49.220;6.920;2022-12-07T09:06:49;5.43;;;3.40;;
62832;SDS011;48891;49.220;6.920;2022-12-07T09:09:15;5.85;;;3.88;;
62832;SDS011;48891;49.220;6.920;2022-12-07T09:11:40;5.72;;;3.92;;
62832;SDS011;48891;49.220;6.920;2022-12-07T09:14:06;6.15;;;4.03;;
62832;SDS011;48891;49.220;6.920;2022-12-07T09:16:31;5.40;;;3.47;;
62832;SDS011;48891;49.220;6.920;2022-12-07T09:18:56;5.60;;;4.00;;
62832;SDS011;48891;49.220;6.920;2022-12-07T09:21:22;5.18;;;3.60;;
62832;SDS011;48891;49.220;6.920;2022-12-07T09:23:47;7.37;;;4.17;;
62832;SDS011;48891;49.220;6.920;2022-12-07T09:26:12;6.30;;;3.65;;
62832;SDS011;48891;49.220;6.920;2022-12-07T09:28:37;6.80;;;4.40;;
62832;SDS011;48891;49.220;6.920;2022-12-07T09:31:02;7.93;;;4.20;;
62832;SDS011;48891;49.220;6.920;2022-12-07T09:33:27;6.40;;;3.90;;
62832;SDS011;48891;49.220;6.920;2022-12-07T09:35:53;6.83;;;3.80;;
62832;SDS011;48891;49.220;6.920;2022-12-07T09:38:18;6.67;;;4.03;;
62832;SDS011;48891;49.220;6.920;2022-12-07T09:40:44;5.78;;;3.83;;
62832;SDS011;48891;49.220;6.920;2022-12-07T09:43:28;6.47;;;3.92;;
62832;SDS011;48891;49.220;6.920;2022-12-07T09:45:54;7.07;;;4.07;;
62832;SDS011;48891;49.220;6.920;2022-12-07T09:48:25;6.35;;;4.22;;
62832;SDS011;48891;49.220;6.920;2022-12-07T09:50:50;5.55;;;3.60;;
62832;SDS011;48891;49.220;6.920;2022-12-07T09:55:45;6.65;;;3.97;;
62832;SDS011;48891;49.220;6.920;2022-12-07T09:58:12;6.10;;;3.93;;
62832;SDS011;48891;49.220;6.920;2022-12-07T10:00:42;5.93;;;3.72;;
62832;SDS011;48891;49.220;6.920;2022-12-07T10:03:08;6.07;;;3.78;;
62832;SDS011;48891;49.220;6.920;2022-12-07T10:05:36;6.80;;;4.00;;
62832;SDS011;48891;49.220;6.920;2022-12-07T10:08:03;5.53;;;3.38;;
62832;SDS011;48891;49.220;6.920;2022-12-07T10:10:32;5.93;;;4.07;;
62832;SDS011;48891;49.220;6.920;2022-12-07T10:15:22;6.18;;;4.05;;
62832;SDS011;48891;49.220;6.920;2022-12-07T10:17:48;9.23;;;4.28;;
62832;SDS011;48891;49.220;6.920;2022-12-07T10:20:22;6.22;;;3.65;;
62832;SDS011;48891;49.220;6.920;2022-12-07T10:25:20;5.90;;;4.35;;
62832;SDS011;48891;49.220;6.920;2022-12-07T10:27:56;6.40;;;3.65;;
62832;SDS011;48891;49.220;6.920;2022-12-07T10:30:22;7.13;;;3.88;;
62832;SDS011;48891;49.220;6.920;2022-12-07T10:32:47;5.70;;;3.67;;
62832;SDS011;48891;49.220;6.920;2022-12-07T10:37:41;5.85;;;3.60;;
62832;SDS011;48891;49.220;6.920;2022-12-07T10:40:10;6.78;;;4.20;;
62832;SDS011;48891;49.220;6.920;2022-12-07T10:42:49;6.22;;;4.00;;
62832;SDS011;48891;49.220;6.920;2022-12-07T10:45:24;6.72;;;3.88;;
62832;SDS011;48891;49.220;6.920;2022-12-07T10:52:56;6.57;;;3.95;;
62832;SDS011;48891;49.220;6.920;2022-12-07T10:55:25;5.85;;;4.05;;
62832;SDS011;48891;49.220;6.920;2022-12-07T11:00:18;5.65;;;3.65;;
62832;SDS011;48891;49.220;6.920;2022-12-07T11:05:27;5.72;;;3.50;;
62832;SDS011;48891;49.220;6.920;2022-12-07T11:10:22;5.30;;;3.63;;
62832;SDS011;48891;49.220;6.920;2022-12-07T11:18:32;5.35;;;3.50;;
62832;SDS011;48891;49.220;6.920;2022-12-07T11:33:57;6.32;;;3.70;;
62832;SDS011;48891;49.220;6.920;2022-12-07T11:38:51;7.07;;;3.78;;
62832;SDS011;48891;49.220;6.920;2022-12-07T11:41:22;4.85;;;3.13;;
62832;SDS011;48891;49.220;6.920;2022-12-07T11:46:19;4.65;;;3.05;;
62832;SDS011;48891;49.220;6.920;2022-12-07T11:51:29;5.03;;;3.35;;
62832;SDS011;48891;49.220;6.920;2022-12-07T11:53:58;6.90;;;3.63;;
62832;SDS011;48891;49.220;6.920;2022-12-07T11:56:26;5.28;;;3.45;;
62832;SDS011;48891;49.220;6.920;2022-12-07T12:03:52;5.65;;;3.33;;
62832;SDS011;48891;49.220;6.920;2022-12-07T12:06:18;5.32;;;3.55;;
62832;SDS011;48891;49.220;6.920;2022-12-07T12:19:15;4.97;;;2.93;;
62832;SDS011;48891;49.220;6.920;2022-12-07T12:21:42;4.88;;;3.00;;
62832;SDS011;48891;49.220;6.920;2022-12-07T12:24:11;5.47;;;3.45;;
62832;SDS011;48891;49.220;6.920;2022-12-07T12:26:38;4.63;;;3.10;;
62832;SDS011;48891;49.220;6.920;2022-12-07T12:29:07;5.57;;;3.10;;
62832;SDS011;48891;49.220;6.920;2022-12-07T12:31:43;6.13;;;3.47;;
62832;SDS011;48891;49.220;6.920;2022-12-07T12:36:56;5.05;;;3.28;;
62832;SDS011;48891;49.220;6.920;2022-12-07T12:39:21;4.65;;;3.20;;
62832;SDS011;48891;49.220;6.920;2022-12-07T12:51:45;5.45;;;3.42;;
62832;SDS011;48891;49.220;6.920;2022-12-07T12:54:15;4.93;;;3.15;;
62832;SDS011;48891;49.220;6.920;2022-12-07T13:01:53;4.90;;;3.20;;
62832;SDS011;48891;49.220;6.920;2022-12-07T13:06:44;5.05;;;2.85;;
62832;SDS011;48891;49.220;6.920;2022-12-07T13:09:23;4.75;;;2.92;;
62832;SDS011;48891;49.220;6.920;2022-12-07T13:11:49;4.47;;;2.95;;
62832;SDS011;48891;49.220;6.920;2022-12-07T13:16:59;4.53;;;2.85;;
62832;SDS011;48891;49.220;6.920;2022-12-07T13:19:52;4.67;;;3.03;;
62832;SDS011;48891;49.220;6.920;2022-12-07T13:25:36;5.22;;;3.00;;
62832;SDS011;48891;49.220;6.920;2022-12-07T13:27:41;4.07;;;2.83;;
62832;SDS011;48891;49.220;6.920;2022-12-07T13:30:14;3.67;;;2.50;;
62832;SDS011;48891;49.220;6.920;2022-12-07T13:32:40;4.57;;;2.90;;
62832;SDS011;48891;49.220;6.920;2022-12-07T13:37:49;4.63;;;3.05;;
62832;SDS011;48891;49.220;6.920;2022-12-07T13:40:17;5.22;;;3.00;;
62832;SDS011;48891;49.220;6.920;2022-12-07T13:42:43;4.43;;;2.72;;
62832;SDS011;48891;49.220;6.920;2022-12-07T13:45:22;4.95;;;2.80;;
62832;SDS011;48891;49.220;6.920;2022-12-07T13:47:49;3.78;;;2.40;;
62832;SDS011;48891;49.220;6.920;2022-12-07T13:50:22;4.95;;;2.70;;
62832;SDS011;48891;49.220;6.920;2022-12-07T13:52:48;4.00;;;2.85;;
62832;SDS011;48891;49.220;6.920;2022-12-07T13:55:14;4.18;;;2.80;;
62832;SDS011;48891;49.220;6.920;2022-12-07T13:57:39;5.35;;;2.80;;
62832;SDS011;48891;49.220;6.920;2022-12-07T14:00:06;3.90;;;2.70;;
62832;SDS011;48891;49.220;6.920;2022-12-07T14:02:54;5.63;;;2.72;;
62832;SDS011;48891;49.220;6.920;2022-12-07T14:05:26;5.00;;;2.78;;
62832;SDS011;48891;49.220;6.920;2022-12-07T14:07:58;5.25;;;3.00;;
62832;SDS011;48891;49.220;6.920;2022-12-07T14:10:25;3.80;;;2.53;;
62832;SDS011;48891;49.220;6.920;2022-12-07T14:12:50;4.20;;;2.80;;
62832;SDS011;48891;49.220;6.920;2022-12-07T14:15:22;3.85;;;2.60;;
62832;SDS011;48891;49.220;6.920;2022-12-07T14:17:51;4.63;;;2.53;;
62832;SDS011;48891;49.220;6.920;2022-12-07T14:20:32;5.20;;;3.13;;
62832;SDS011;48891;49.220;6.920;2022-12-07T14:22:58;5.18;;;3.13;;
62832;SDS011;48891;49.220;6.920;2022-12-07T14:25:23;5.53;;;3.30;;
62832;SDS011;48891;49.220;6.920;2022-12-07T14:27:56;5.18;;;2.80;;
62832;SDS011;48891;49.220;6.920;2022-12-07T14:30:22;5.15;;;3.25;;
62832;SDS011;48891;49.220;6.920;2022-12-07T14:32:48;4.03;;;2.75;;
62832;SDS011;48891;49.220;6.920;2022-12-07T14:35:16;5.78;;;3.50;;
62832;SDS011;48891;49.220;6.920;2022-12-07T14:37:42;5.07;;;3.08;;
62832;SDS011;48891;49.220;6.920;2022-12-07T14:40:11;5.43;;;2.90;;
62832;SDS011;48891;49.220;6.920;2022-12-07T14:45:02;5.65;;;3.05;;
62832;SDS011;48891;49.220;6.920;2022-12-07T14:47:27;6.10;;;3.10;;
62832;SDS011;48891;49.220;6.920;2022-12-07T14:49:52;5.53;;;3.17;;
62832;SDS011;48891;49.220;6.920;2022-12-07T14:52:22;4.60;;;3.15;;
62832;SDS011;48891;49.220;6.920;2022-12-07T14:54:47;5.82;;;3.15;;
62832;SDS011;48891;49.220;6.920;2022-12-07T14:57:12;5.13;;;3.20;;
62832;SDS011;48891;49.220;6.920;2022-12-07T14:59:38;5.32;;;3.60;;
62832;SDS011;48891;49.220;6.920;2022-12-07T15:02:03;5.78;;;3.00;;
62832;SDS011;48891;49.220;6.920;2022-12-07T15:04:28;4.82;;;3.35;;
62832;SDS011;48891;49.220;6.920;2022-12-07T15:06:54;5.53;;;2.92;;
62832;SDS011;48891;49.220;6.920;2022-12-07T15:09:20;6.30;;;3.10;;
62832;SDS011;48891;49.220;6.920;2022-12-07T15:11:45;6.88;;;3.53;;
62832;SDS011;48891;49.220;6.920;2022-12-07T15:14:10;5.25;;;2.78;;
62832;SDS011;48891;49.220;6.920;2022-12-07T15:16:35;5.72;;;3.50;;
62832;SDS011;48891;49.220;6.920;2022-12-07T15:19:01;5.70;;;3.33;;
62832;SDS011;48891;49.220;6.920;2022-12-07T15:21:26;5.85;;;3.05;;
62832;SDS011;48891;49.220;6.920;2022-12-07T15:23:51;5.60;;;3.17;;
62832;SDS011;48891;49.220;6.920;2022-12-07T15:26:16;5.57;;;3.00;;
62832;SDS011;48891;49.220;6.920;2022-12-07T15:28:41;5.97;;;3.10;;
62832;SDS011;48891;49.220;6.920;2022-12-07T15:31:13;6.65;;;3.22;;
62832;SDS011;48891;49.220;6.920;2022-12-07T15:33:39;5.75;;;3.25;;
62832;SDS011;48891;49.220;6.920;2022-12-07T15:36:04;4.60;;;3.00;;
62832;SDS011;48891;49.220;6.920;2022-12-07T15:38:29;5.32;;;3.00;;
62832;SDS011;48891;49.220;6.920;2022-12-07T15:40:54;4.43;;;2.67;;
62832;SDS011;48891;49.220;6.920;2022-12-07T15:43:19;5.63;;;2.97;;
62832;SDS011;48891;49.220;6.920;2022-12-07T15:45:45;4.43;;;2.90;;
62832;SDS011;48891;49.220;6.920;2022-12-07T15:48:14;6.05;;;2.92;;
62832;SDS011;48891;49.220;6.920;2022-12-07T15:50:39;5.38;;;3.05;;
62832;SDS011;48891;49.220;6.920;2022-12-07T15:53:04;6.63;;;3.10;;
62832;SDS011;48891;49.220;6.920;2022-12-07T15:55:29;4.82;;;2.90;;
62832;SDS011;48891;49.220;6.920;2022-12-07T15:57:54;5.82;;;3.33;;
62832;SDS011;48891;49.220;6.920;2022-12-07T16:00:19;4.55;;;2.53;;
62832;SDS011;48891;49.220;6.920;2022-12-07T16:02:45;6.28;;;3.15;;
62832;SDS011;48891;49.220;6.920;2022-12-07T16:05:10;5.03;;;3.08;;
62832;SDS011;48891;49.220;6.920;2022-12-07T16:07:35;6.22;;;3.00;;
62832;SDS011;48891;49.220;6.920;2022-12-07T16:10:00;5.90;;;3.13;;
62832;SDS011;48891;49.220;6.920;2022-12-07T16:12:25;5.07;;;3.13;;
62832;SDS011;48891;49.220;6.920;2022-12-07T16:14:50;4.22;;;2.78;;
62832;SDS011;48891;49.220;6.920;2022-12-07T16:17:15;4.93;;;3.00;;
62832;SDS011;48891;49.220;6.920;2022-12-07T16:19:40;6.45;;;3.13;;
62832;SDS011;48891;49.220;6.920;2022-12-07T16:22:06;4.80;;;2.83;;
62832;SDS011;48891;49.220;6.920;2022-12-07T16:24:31;5.13;;;2.83;;
62832;SDS011;48891;49.220;6.920;2022-12-07T16:26:56;4.78;;;2.80;;
62832;SDS011;48891;49.220;6.920;2022-12-07T16:29:22;5.15;;;3.28;;
62832;SDS011;48891;49.220;6.920;2022-12-07T16:31:47;5.28;;;3.22;;
62832;SDS011;48891;49.220;6.920;2022-12-07T16:34:13;4.65;;;2.67;;
62832;SDS011;48891;49.220;6.920;2022-12-07T16:36:38;4.85;;;3.00;;
62832;SDS011;48891;49.220;6.920;2022-12-07T16:39:03;4.88;;;3.10;;
62832;SDS011;48891;49.220;6.920;2022-12-07T16:41:29;5.07;;;2.88;;
62832;SDS011;48891;49.220;6.920;2022-12-07T16:43:54;5.13;;;3.35;;
62832;SDS011;48891;49.220;6.920;2022-12-07T16:46:19;4.60;;;2.70;;
62832;SDS011;48891;49.220;6.920;2022-12-07T16:48:44;5.18;;;3.20;;